sensor_id;sensor_type;location;lat;lon;timestamp;pressure;altitude;pressure_sealevel;temperature;humidity
6974;BME280;3527;52.376;8.990;2022-10-16T00:02:11;69532.09;;;-145.07;100.00
6974;BME280;3527;52.376;8.990;2022-10-16T00:04:58;69532.09;;;-145.07;100.00
6974;BME280;3527;52.376;8.990;2022-10-16T00:07:45;69532.09;;;-145.07;100.00
6974;BME280;3527;52.376;8.990;2022-10-16T00:10:32;69532.09;;;-145.07;100.00
6974;BME280;3527;52.376;8.990;2022-10-16T00:13:19;69532.09;;;-145.07;100.00
6974;BME280;3527;52.376;8.990;2022-10-16T00:16:08;69532.09;;;-145.07;100.00
6974;BME280;3527;52.376;8.990;2022-10-16T00:18:56;69532.09;;;-145.07;100.00
6974;BME280;3527;52.376;8.990;2022-10-16T00:21:43;69532.09;;;-145.07;100.00
6974;BME280;3527;52.376;8.990;2022-10-16T00:24:30;69532.09;;;-145.07;100.00
6974;BME280;3527;52.376;8.990;2022-10-16T00:27:17;69532.09;;;-145.07;100.00
6974;BME280;3527;52.376;8.990;2022-10-16T00:30:05;69532.09;;;-145.07;100.00
6974;BME280;3527;52.376;8.990;2022-10-16T00:32:52;69532.09;;;-145.07;100.00
6974;BME280;3527;52.376;8.990;2022-10-16T00:35:39;69532.09;;;-145.07;100.00
6974;BME280;3527;52.376;8.990;2022-10-16T00:38:26;69532.09;;;-145.07;100.00
6974;BME280;3527;52.376;8.990;2022-10-16T00:41:15;69532.09;;;-145.07;100.00
6974;BME280;3527;52.376;8.990;2022-10-16T00:44:43;69532.09;;;-145.07;100.00
6974;BME280;3527;52.376;8.990;2022-10-16T00:47:36;69532.09;;;-145.07;100.00
6974;BME280;3527;52.376;8.990;2022-10-16T00:50:28;69532.09;;;-145.07;100.00
6974;BME280;3527;52.376;8.990;2022-10-16T00:53:16;69532.09;;;-145.07;100.00
6974;BME280;3527;52.376;8.990;2022-10-16T00:56:04;69532.09;;;-145.07;100.00
6974;BME280;3527;52.376;8.990;2022-10-16T00:58:51;69532.09;;;-145.07;100.00
6974;BME280;3527;52.376;8.990;2022-10-16T01:01:38;69532.09;;;-145.07;100.00
6974;BME280;3527;52.376;8.990;2022-10-16T01:04:26;69532.09;;;-145.07;100.00
6974;BME280;3527;52.376;8.990;2022-10-16T01:07:39;69532.09;;;-145.07;100.00
6974;BME280;3527;52.376;8.990;2022-10-16T01:10:38;69532.09;;;-145.07;100.00
6974;BME280;3527;52.376;8.990;2022-10-16T01:13:32;69532.09;;;-145.07;100.00
6974;BME280;3527;52.376;8.990;2022-10-16T01:16:39;69532.09;;;-145.07;100.00
6974;BME280;3527;52.376;8.990;2022-10-16T01:22:44;69532.09;;;-145.07;100.00
6974;BME280;3527;52.376;8.990;2022-10-16T01:29:09;69532.09;;;-145.07;100.00
6974;BME280;3527;52.376;8.990;2022-10-16T01:32:05;69532.09;;;-145.07;100.00
6974;BME280;3527;52.376;8.990;2022-10-16T01:38:08;69532.09;;;-145.07;100.00
6974;BME280;3527;52.376;8.990;2022-10-16T01:41:01;69532.09;;;-145.07;100.00
6974;BME280;3527;52.376;8.990;2022-10-16T01:46:47;69532.09;;;-145.07;100.00
6974;BME280;3527;52.376;8.990;2022-10-16T01:49:36;69532.09;;;-145.07;100.00
6974;BME280;3527;52.376;8.990;2022-10-16T01:52:27;69532.09;;;-145.07;100.00
6974;BME280;3527;52.376;8.990;2022-10-16T01:55:22;69532.09;;;-145.07;100.00
6974;BME280;3527;52.376;8.990;2022-10-16T01:58:12;69532.09;;;-145.07;100.00
6974;BME280;3527;52.376;8.990;2022-10-16T02:01:01;69532.09;;;-145.07;100.00
6974;BME280;3527;52.376;8.990;2022-10-16T02:03:51;69532.09;;;-145.07;100.00
6974;BME280;3527;52.376;8.990;2022-10-16T02:06:40;69532.09;;;-145.07;100.00
6974;BME280;3527;52.376;8.990;2022-10-16T02:09:29;69532.09;;;-145.07;100.00
6974;BME280;3527;52.376;8.990;2022-10-16T02:12:37;69532.09;;;-145.07;100.00
6974;BME280;3527;52.376;8.990;2022-10-16T02:15:26;69532.09;;;-145.07;100.00
6974;BME280;3527;52.376;8.990;2022-10-16T02:18:13;69532.09;;;-145.07;100.00
6974;BME280;3527;52.376;8.990;2022-10-16T02:26:54;69532.09;;;-145.07;100.00
6974;BME280;3527;52.376;8.990;2022-10-16T02:29:47;69532.09;;;-145.07;100.00
6974;BME280;3527;52.376;8.990;2022-10-16T02:32:38;69532.09;;;-145.07;100.00
6974;BME280;3527;52.376;8.990;2022-10-16T02:35:27;69532.09;;;-145.07;100.00
6974;BME280;3527;52.376;8.990;2022-10-16T02:38:16;69532.09;;;-145.07;100.00
6974;BME280;3527;52.376;8.990;2022-10-16T02:41:04;69532.09;;;-145.07;100.00
6974;BME280;3527;52.376;8.990;2022-10-16T02:43:51;69532.09;;;-145.07;100.00
6974;BME280;3527;52.376;8.990;2022-10-16T02:46:38;69532.09;;;-145.07;100.00
6974;BME280;3527;52.376;8.990;2022-10-16T02:49:25;69532.09;;;-145.07;100.00
6974;BME280;3527;52.376;8.990;2022-10-16T02:52:12;69532.09;;;-145.07;100.00
6974;BME280;3527;52.376;8.990;2022-10-16T02:54:59;69532.09;;;-145.07;100.00
6974;BME280;3527;52.376;8.990;2022-10-16T02:57:46;69532.09;;;-145.07;100.00
6974;BME280;3527;52.376;8.990;2022-10-16T03:00:33;69532.09;;;-145.07;100.00
6974;BME280;3527;52.376;8.990;2022-10-16T03:03:20;69532.09;;;-145.07;100.00
6974;BME280;3527;52.376;8.990;2022-10-16T03:06:07;69532.09;;;-145.07;100.00
6974;BME280;3527;52.376;8.990;2022-10-16T03:08:54;69532.09;;;-145.07;100.00
6974;BME280;3527;52.376;8.990;2022-10-16T03:11:41;69532.09;;;-145.07;100.00
6974;BME280;3527;52.376;8.990;2022-10-16T03:14:28;69532.09;;;-145.07;100.00
6974;BME280;3527;52.376;8.990;2022-10-16T03:17:15;69532.09;;;-145.07;100.00
6974;BME280;3527;52.376;8.990;2022-10-16T03:20:03;69532.09;;;-145.07;100.00
6974;BME280;3527;52.376;8.990;2022-10-16T03:22:50;69532.09;;;-145.07;100.00
6974;BME280;3527;52.376;8.990;2022-10-16T03:25:37;69532.09;;;-145.07;100.00
6974;BME280;3527;52.376;8.990;2022-10-16T03:28:24;69532.09;;;-145.07;100.00
6974;BME280;3527;52.376;8.990;2022-10-16T03:31:12;69532.09;;;-145.07;100.00
6974;BME280;3527;52.376;8.990;2022-10-16T03:33:59;69532.09;;;-145.07;100.00
6974;BME280;3527;52.376;8.990;2022-10-16T03:36:46;69532.09;;;-145.07;100.00
6974;BME280;3527;52.376;8.990;2022-10-16T03:39:33;69532.09;;;-145.07;100.00
6974;BME280;3527;52.376;8.990;2022-10-16T03:42:20;69532.09;;;-145.07;100.00
6974;BME280;3527;52.376;8.990;2022-10-16T03:45:07;69532.09;;;-145.07;100.00
6974;BME280;3527;52.376;8.990;2022-10-16T03:47:54;69532.09;;;-145.07;100.00
6974;BME280;3527;52.376;8.990;2022-10-16T03:50:41;69532.09;;;-145.07;100.00
6974;BME280;3527;52.376;8.990;2022-10-16T03:53:28;69532.09;;;-145.07;100.00
6974;BME280;3527;52.376;8.990;2022-10-16T03:56:15;69532.09;;;-145.07;100.00
6974;BME280;3527;52.376;8.990;2022-10-16T03:59:02;69532.09;;;-145.07;100.00
6974;BME280;3527;52.376;8.990;2022-10-16T04:01:49;69532.09;;;-145.07;100.00
6974;BME280;3527;52.376;8.990;2022-10-16T04:04:36;69532.09;;;-145.07;100.00
6974;BME280;3527;52.376;8.990;2022-10-16T04:07:23;69532.09;;;-145.07;100.00
6974;BME280;3527;52.376;8.990;2022-10-16T04:10:10;69532.09;;;-145.07;100.00
6974;BME280;3527;52.376;8.990;2022-10-16T04:12:57;69532.09;;;-145.07;100.00
6974;BME280;3527;52.376;8.990;2022-10-16T04:15:45;69532.09;;;-145.07;100.00
6974;BME280;3527;52.376;8.990;2022-10-16T04:18:32;69532.09;;;-145.07;100.00
6974;BME280;3527;52.376;8.990;2022-10-16T04:21:19;69532.09;;;-145.07;100.00
6974;BME280;3527;52.376;8.990;2022-10-16T04:24:06;69532.09;;;-145.07;100.00
6974;BME280;3527;52.376;8.990;2022-10-16T04:26:53;69532.09;;;-145.07;100.00
6974;BME280;3527;52.376;8.990;2022-10-16T04:29:40;69532.09;;;-145.07;100.00
6974;BME280;3527;52.376;8.990;2022-10-16T04:32:27;69532.09;;;-145.07;100.00
6974;BME280;3527;52.376;8.990;2022-10-16T04:35:14;69532.09;;;-145.07;100.00
6974;BME280;3527;52.376;8.990;2022-10-16T04:38:01;69532.09;;;-145.07;100.00
6974;BME280;3527;52.376;8.990;2022-10-16T04:40:48;69532.09;;;-145.07;100.00
6974;BME280;3527;52.376;8.990;2022-10-16T04:43:35;69532.09;;;-145.07;100.00
6974;BME280;3527;52.376;8.990;2022-10-16T04:46:22;69532.09;;;-145.07;100.00
6974;BME280;3527;52.376;8.990;2022-10-16T04:49:09;69532.09;;;-145.07;100.00
6974;BME280;3527;52.376;8.990;2022-10-16T04:51:56;69532.09;;;-145.07;100.00
6974;BME280;3527;52.376;8.990;2022-10-16T04:54:43;69532.09;;;-145.07;100.00
6974;BME280;3527;52.376;8.990;2022-10-16T04:57:31;69532.09;;;-145.07;100.00
6974;BME280;3527;52.376;8.990;2022-10-16T05:00:20;69532.09;;;-145.07;100.00
6974;BME280;3527;52.376;8.990;2022-10-16T05:03:07;69532.09;;;-145.07;100.00
6974;BME280;3527;52.376;8.990;2022-10-16T05:05:55;69532.09;;;-145.07;100.00
6974;BME280;3527;52.376;8.990;2022-10-16T05:08:43;69532.09;;;-145.07;100.00
6974;BME280;3527;52.376;8.990;2022-10-16T05:11:30;69532.09;;;-145.07;100.00
6974;BME280;3527;52.376;8.990;2022-10-16T05:14:17;69532.09;;;-145.07;100.00
6974;BME280;3527;52.376;8.990;2022-10-16T05:17:04;69532.09;;;-145.07;100.00
6974;BME280;3527;52.376;8.990;2022-10-16T05:19:51;69532.09;;;-145.07;100.00
6974;BME280;3527;52.376;8.990;2022-10-16T05:22:38;69532.09;;;-145.07;100.00
6974;BME280;3527;52.376;8.990;2022-10-16T05:25:25;69532.09;;;-145.07;100.00
6974;BME280;3527;52.376;8.990;2022-10-16T05:28:12;69532.09;;;-145.07;100.00
6974;BME280;3527;52.376;8.990;2022-10-16T05:31:04;69532.09;;;-145.07;100.00
6974;BME280;3527;52.376;8.990;2022-10-16T05:33:52;69532.09;;;-145.07;100.00
6974;BME280;3527;52.376;8.990;2022-10-16T05:36:44;69532.09;;;-145.07;100.00
6974;BME280;3527;52.376;8.990;2022-10-16T05:39:32;69532.09;;;-145.07;100.00
6974;BME280;3527;52.376;8.990;2022-10-16T05:42:19;69532.09;;;-145.07;100.00
6974;BME280;3527;52.376;8.990;2022-10-16T05:45:07;69532.09;;;-145.07;100.00
6974;BME280;3527;52.376;8.990;2022-10-16T05:47:55;69532.09;;;-145.07;100.00
6974;BME280;3527;52.376;8.990;2022-10-16T05:50:42;69532.09;;;-145.07;100.00
6974;BME280;3527;52.376;8.990;2022-10-16T05:53:32;69532.09;;;-145.07;100.00
6974;BME280;3527;52.376;8.990;2022-10-16T05:56:19;69532.09;;;-145.07;100.00
6974;BME280;3527;52.376;8.990;2022-10-16T05:59:06;69532.09;;;-145.07;100.00
6974;BME280;3527;52.376;8.990;2022-10-16T06:01:53;69532.09;;;-145.07;100.00
6974;BME280;3527;52.376;8.990;2022-10-16T06:04:40;69532.09;;;-145.07;100.00
6974;BME280;3527;52.376;8.990;2022-10-16T06:07:27;69532.09;;;-145.07;100.00
6974;BME280;3527;52.376;8.990;2022-10-16T06:10:15;69532.09;;;-145.07;100.00
6974;BME280;3527;52.376;8.990;2022-10-16T06:13:02;69532.09;;;-145.07;100.00
6974;BME280;3527;52.376;8.990;2022-10-16T06:15:49;69532.09;;;-145.07;100.00
6974;BME280;3527;52.376;8.990;2022-10-16T06:18:36;69532.09;;;-145.07;100.00
6974;BME280;3527;52.376;8.990;2022-10-16T06:21:25;69532.09;;;-145.07;100.00
6974;BME280;3527;52.376;8.990;2022-10-16T06:24:12;69532.09;;;-145.07;100.00
6974;BME280;3527;52.376;8.990;2022-10-16T06:26:59;69532.09;;;-145.07;100.00
6974;BME280;3527;52.376;8.990;2022-10-16T06:29:46;69532.09;;;-145.07;100.00
6974;BME280;3527;52.376;8.990;2022-10-16T06:32:33;69532.09;;;-145.07;100.00
6974;BME280;3527;52.376;8.990;2022-10-16T06:35:20;69532.09;;;-145.07;100.00
6974;BME280;3527;52.376;8.990;2022-10-16T06:38:07;69532.09;;;-145.07;100.00
6974;BME280;3527;52.376;8.990;2022-10-16T06:40:54;69532.09;;;-145.07;100.00
6974;BME280;3527;52.376;8.990;2022-10-16T06:43:41;69532.09;;;-145.07;100.00
6974;BME280;3527;52.376;8.990;2022-10-16T06:46:28;69532.09;;;-145.07;100.00
6974;BME280;3527;52.376;8.990;2022-10-16T06:49:15;69532.09;;;-145.07;100.00
6974;BME280;3527;52.376;8.990;2022-10-16T06:52:08;69532.09;;;-145.07;100.00
6974;BME280;3527;52.376;8.990;2022-10-16T06:54:55;69532.09;;;-145.07;100.00
6974;BME280;3527;52.376;8.990;2022-10-16T06:57:42;69532.09;;;-145.07;100.00
6974;BME280;3527;52.376;8.990;2022-10-16T07:00:29;69532.09;;;-145.07;100.00
6974;BME280;3527;52.376;8.990;2022-10-16T07:03:16;69532.09;;;-145.07;100.00
6974;BME280;3527;52.376;8.990;2022-10-16T07:06:04;69532.09;;;-145.07;100.00
6974;BME280;3527;52.376;8.990;2022-10-16T07:08:51;69532.09;;;-145.07;100.00
6974;BME280;3527;52.376;8.990;2022-10-16T07:11:39;69532.09;;;-145.07;100.00
6974;BME280;3527;52.376;8.990;2022-10-16T07:14:26;69532.09;;;-145.07;100.00
6974;BME280;3527;52.376;8.990;2022-10-16T07:17:13;69532.09;;;-145.07;100.00
6974;BME280;3527;52.376;8.990;2022-10-16T07:20:01;69532.09;;;-145.07;100.00
6974;BME280;3527;52.376;8.990;2022-10-16T07:22:48;69532.09;;;-145.07;100.00
6974;BME280;3527;52.376;8.990;2022-10-16T07:25:35;69532.09;;;-145.07;100.00
6974;BME280;3527;52.376;8.990;2022-10-16T07:28:22;69532.09;;;-145.07;100.00
6974;BME280;3527;52.376;8.990;2022-10-16T07:31:12;69532.09;;;-145.07;100.00
6974;BME280;3527;52.376;8.990;2022-10-16T07:34:00;69532.09;;;-145.07;100.00
6974;BME280;3527;52.376;8.990;2022-10-16T07:36:48;69532.09;;;-145.07;100.00
6974;BME280;3527;52.376;8.990;2022-10-16T07:39:36;69532.09;;;-145.07;100.00
6974;BME280;3527;52.376;8.990;2022-10-16T07:42:23;69532.09;;;-145.07;100.00
6974;BME280;3527;52.376;8.990;2022-10-16T07:45:10;69532.09;;;-145.07;100.00
6974;BME280;3527;52.376;8.990;2022-10-16T07:47:57;69532.09;;;-145.07;100.00
6974;BME280;3527;52.376;8.990;2022-10-16T07:50:44;69532.09;;;-145.07;100.00
6974;BME280;3527;52.376;8.990;2022-10-16T07:53:32;69532.09;;;-145.07;100.00
6974;BME280;3527;52.376;8.990;2022-10-16T07:56:20;69532.09;;;-145.07;100.00
6974;BME280;3527;52.376;8.990;2022-10-16T07:59:07;69532.09;;;-145.07;100.00
6974;BME280;3527;52.376;8.990;2022-10-16T08:01:54;69532.09;;;-145.07;100.00
6974;BME280;3527;52.376;8.990;2022-10-16T08:04:41;69532.09;;;-145.07;100.00
6974;BME280;3527;52.376;8.990;2022-10-16T08:07:29;69532.09;;;-145.07;100.00
6974;BME280;3527;52.376;8.990;2022-10-16T08:10:17;69532.09;;;-145.07;100.00
6974;BME280;3527;52.376;8.990;2022-10-16T08:13:05;69532.09;;;-145.07;100.00
6974;BME280;3527;52.376;8.990;2022-10-16T08:15:53;69532.09;;;-145.07;100.00
6974;BME280;3527;52.376;8.990;2022-10-16T08:18:41;69532.09;;;-145.07;100.00
6974;BME280;3527;52.376;8.990;2022-10-16T08:21:28;69532.09;;;-145.07;100.00
6974;BME280;3527;52.376;8.990;2022-10-16T08:24:15;69532.09;;;-145.07;100.00
6974;BME280;3527;52.376;8.990;2022-10-16T08:27:02;69532.09;;;-145.07;100.00
6974;BME280;3527;52.376;8.990;2022-10-16T08:29:50;69532.09;;;-145.07;100.00
6974;BME280;3527;52.376;8.990;2022-10-16T08:32:37;69532.09;;;-145.07;100.00
6974;BME280;3527;52.376;8.990;2022-10-16T08:35:24;69532.09;;;-145.07;100.00
6974;BME280;3527;52.376;8.990;2022-10-16T08:38:11;69532.09;;;-145.07;100.00
6974;BME280;3527;52.376;8.990;2022-10-16T08:49:59;69532.09;;;-145.07;100.00
6974;BME280;3527;52.376;8.990;2022-10-16T08:52:48;69532.09;;;-145.07;100.00
6974;BME280;3527;52.376;8.990;2022-10-16T08:55:41;69532.09;;;-145.07;100.00
6974;BME280;3527;52.376;8.990;2022-10-16T08:58:30;69532.09;;;-145.07;100.00
6974;BME280;3527;52.376;8.990;2022-10-16T09:01:19;69532.09;;;-145.07;100.00
6974;BME280;3527;52.376;8.990;2022-10-16T09:08:05;69532.09;;;-145.07;100.00
6974;BME280;3527;52.376;8.990;2022-10-16T09:11:30;69532.09;;;-145.07;100.00
6974;BME280;3527;52.376;8.990;2022-10-16T09:23:29;101178.22;;;17.37;100.00
6974;BME280;3527;52.376;8.990;2022-10-16T09:26:17;101168.19;;;17.18;100.00
6974;BME280;3527;52.376;8.990;2022-10-16T09:29:10;101171.72;;;17.47;100.00
6974;BME280;3527;52.376;8.990;2022-10-16T09:32:10;101173.31;;;17.55;100.00
6974;BME280;3527;52.376;8.990;2022-10-16T09:34:58;101180.22;;;17.40;99.62
6974;BME280;3527;52.376;8.990;2022-10-16T09:37:47;101173.41;;;17.20;98.79
6974;BME280;3527;52.376;8.990;2022-10-16T09:40:38;101181.47;;;17.28;99.09
6974;BME280;3527;52.376;8.990;2022-10-16T09:46:38;101188.28;;;17.42;97.95
6974;BME280;3527;52.376;8.990;2022-10-16T09:49:26;101197.97;;;17.41;97.97
6974;BME280;3527;52.376;8.990;2022-10-16T09:52:14;101200.78;;;17.44;98.15
6974;BME280;3527;52.376;8.990;2022-10-16T09:55:13;101186.28;;;17.35;97.40
6974;BME280;3527;52.376;8.990;2022-10-16T09:58:00;101200.72;;;17.62;97.60
6974;BME280;3527;52.376;8.990;2022-10-16T10:00:53;101210.41;;;17.68;96.53
6974;BME280;3527;52.376;8.990;2022-10-16T10:03:42;101201.56;;;17.55;95.50
6974;BME280;3527;52.376;8.990;2022-10-16T10:06:35;101209.53;;;17.85;95.24
6974;BME280;3527;52.376;8.990;2022-10-16T10:09:27;101211.94;;;17.87;93.79
6974;BME280;3527;52.376;8.990;2022-10-16T10:12:33;101195.69;;;18.09;91.75
6974;BME280;3527;52.376;8.990;2022-10-16T10:15:23;101206.19;;;18.08;89.99
6974;BME280;3527;52.376;8.990;2022-10-16T10:18:18;101197.19;;;18.24;89.59
6974;BME280;3527;52.376;8.990;2022-10-16T10:21:14;101198.09;;;18.14;88.49
6974;BME280;3527;52.376;8.990;2022-10-16T10:24:02;101199.34;;;18.02;87.92
6974;BME280;3527;52.376;8.990;2022-10-16T10:26:57;101227.97;;;18.08;88.29
6974;BME280;3527;52.376;8.990;2022-10-16T10:38:51;101223.81;;;18.30;85.47
6974;BME280;3527;52.376;8.990;2022-10-16T10:51:15;101236.00;;;18.82;83.55
6974;BME280;3527;52.376;8.990;2022-10-16T10:54:23;101222.44;;;18.56;82.78
6974;BME280;3527;52.376;8.990;2022-10-16T10:57:31;101226.81;;;18.61;82.44
6974;BME280;3527;52.376;8.990;2022-10-16T11:00:30;101245.50;;;19.06;82.14
6974;BME280;3527;52.376;8.990;2022-10-16T11:06:55;101226.03;;;19.12;80.52
6974;BME280;3527;52.376;8.990;2022-10-16T11:09:47;101234.34;;;19.30;80.23
6974;BME280;3527;52.376;8.990;2022-10-16T11:12:42;101224.41;;;18.66;80.04
6974;BME280;3527;52.376;8.990;2022-10-16T11:15:34;101238.88;;;18.06;80.44
6974;BME280;3527;52.376;8.990;2022-10-16T11:18:33;101258.75;;;17.88;81.82
6974;BME280;3527;52.376;8.990;2022-10-16T11:21:26;101262.41;;;17.78;82.83
6974;BME280;3527;52.376;8.990;2022-10-16T11:27:41;101289.50;;;17.47;84.44
6974;BME280;3527;52.376;8.990;2022-10-16T11:30:34;101295.03;;;17.97;84.67
6974;BME280;3527;52.376;8.990;2022-10-16T11:33:39;101291.97;;;18.46;83.16
6974;BME280;3527;52.376;8.990;2022-10-16T11:39:28;101281.47;;;19.06;81.09
6974;BME280;3527;52.376;8.990;2022-10-16T11:42:37;101250.72;;;18.63;79.34
6974;BME280;3527;52.376;8.990;2022-10-16T11:45:41;101256.75;;;18.58;79.50
6974;BME280;3527;52.376;8.990;2022-10-16T11:48:43;101263.84;;;18.88;79.54
6974;BME280;3527;52.376;8.990;2022-10-16T11:51:47;101274.59;;;19.07;79.50
6974;BME280;3527;52.376;8.990;2022-10-16T11:54:49;101268.47;;;19.12;78.25
6974;BME280;3527;52.376;8.990;2022-10-16T11:57:42;101254.53;;;18.91;77.81
6974;BME280;3527;52.376;8.990;2022-10-16T12:00:40;101265.31;;;19.06;77.42
6974;BME280;3527;52.376;8.990;2022-10-16T12:03:44;101260.75;;;18.71;77.70
6974;BME280;3527;52.376;8.990;2022-10-16T12:06:54;101292.41;;;19.04;78.75
6974;BME280;3527;52.376;8.990;2022-10-16T12:09:44;101263.66;;;19.09;76.21
6974;BME280;3527;52.376;8.990;2022-10-16T12:15:24;101274.09;;;19.19;76.81
6974;BME280;3527;52.376;8.990;2022-10-16T12:18:32;101283.75;;;19.25;76.88
6974;BME280;3527;52.376;8.990;2022-10-16T12:21:30;101287.34;;;19.29;76.70
6974;BME280;3527;52.376;8.990;2022-10-16T12:24:38;101291.63;;;19.44;76.54
6974;BME280;3527;52.376;8.990;2022-10-16T12:27:30;101262.03;;;19.53;75.04
6974;BME280;3527;52.376;8.990;2022-10-16T12:30:22;101269.00;;;19.82;73.83
6974;BME280;3527;52.376;8.990;2022-10-16T12:33:22;101267.81;;;20.14;73.37
6974;BME280;3527;52.376;8.990;2022-10-16T12:36:15;101232.03;;;19.93;71.58
6974;BME280;3527;52.376;8.990;2022-10-16T12:39:28;101262.66;;;19.71;72.91
6974;BME280;3527;52.376;8.990;2022-10-16T12:42:23;101261.97;;;19.60;73.23
6974;BME280;3527;52.376;8.990;2022-10-16T12:45:32;101272.97;;;19.51;73.25
6974;BME280;3527;52.376;8.990;2022-10-16T12:48:21;101308.19;;;19.50;74.64
6974;BME280;3527;52.376;8.990;2022-10-16T12:51:33;101296.00;;;19.56;74.02
6974;BME280;3527;52.376;8.990;2022-10-16T12:54:30;101288.56;;;19.28;74.01
6974;BME280;3527;52.376;8.990;2022-10-16T13:00:48;101285.38;;;19.23;74.00
6974;BME280;3527;52.376;8.990;2022-10-16T13:04:04;101300.97;;;19.41;73.77
6974;BME280;3527;52.376;8.990;2022-10-16T13:07:06;101303.00;;;19.41;74.32
6974;BME280;3527;52.376;8.990;2022-10-16T13:22:45;101293.81;;;19.71;71.78
6974;BME280;3527;52.376;8.990;2022-10-16T13:28:37;101304.34;;;19.29;72.99
6974;BME280;3527;52.376;8.990;2022-10-16T13:31:25;101295.84;;;19.29;72.48
6974;BME280;3527;52.376;8.990;2022-10-16T13:34:15;101295.97;;;19.11;72.41
6974;BME280;3527;52.376;8.990;2022-10-16T13:37:16;101300.84;;;19.11;72.42
6974;BME280;3527;52.376;8.990;2022-10-16T13:40:22;101321.91;;;19.06;72.90
6974;BME280;3527;52.376;8.990;2022-10-16T13:43:09;101317.50;;;19.02;73.61
6974;BME280;3527;52.376;8.990;2022-10-16T13:45:59;101313.97;;;18.87;73.26
6974;BME280;3527;52.376;8.990;2022-10-16T13:51:59;101315.66;;;18.77;73.68
6974;BME280;3527;52.376;8.990;2022-10-16T13:54:47;101325.00;;;18.71;74.26
6974;BME280;3527;52.376;8.990;2022-10-16T13:57:34;101318.94;;;18.72;74.13
6974;BME280;3527;52.376;8.990;2022-10-16T14:00:24;101329.34;;;18.82;74.30
6974;BME280;3527;52.376;8.990;2022-10-16T14:03:14;101345.91;;;18.88;73.97
6974;BME280;3527;52.376;8.990;2022-10-16T14:06:04;101342.25;;;18.91;73.88
6974;BME280;3527;52.376;8.990;2022-10-16T14:09:05;101329.75;;;18.84;73.28
6974;BME280;3527;52.376;8.990;2022-10-16T14:11:56;101345.56;;;18.78;73.97
6974;BME280;3527;52.376;8.990;2022-10-16T14:14:46;101337.47;;;18.80;73.80
6974;BME280;3527;52.376;8.990;2022-10-16T14:17:35;101345.97;;;18.77;73.85
6974;BME280;3527;52.376;8.990;2022-10-16T14:20:27;101352.03;;;18.75;74.63
6974;BME280;3527;52.376;8.990;2022-10-16T14:23:21;101358.56;;;18.69;75.27
6974;BME280;3527;52.376;8.990;2022-10-16T14:29:12;101362.19;;;18.59;75.47
6974;BME280;3527;52.376;8.990;2022-10-16T14:32:02;101344.09;;;18.45;74.78
6974;BME280;3527;52.376;8.990;2022-10-16T14:34:53;101365.13;;;18.41;75.28
6974;BME280;3527;52.376;8.990;2022-10-16T14:37:40;101355.88;;;18.37;74.61
6974;BME280;3527;52.376;8.990;2022-10-16T14:40:36;101357.88;;;18.40;75.31
6974;BME280;3527;52.376;8.990;2022-10-16T14:46:20;101368.38;;;18.32;76.84
6974;BME280;3527;52.376;8.990;2022-10-16T14:51:58;101346.28;;;18.02;75.86
6974;BME280;3527;52.376;8.990;2022-10-16T14:54:48;101358.03;;;17.90;76.39
6974;BME280;3527;52.376;8.990;2022-10-16T14:57:37;101380.63;;;17.90;77.71
6974;BME280;3527;52.376;8.990;2022-10-16T15:00:25;101370.16;;;17.80;76.80
6974;BME280;3527;52.376;8.990;2022-10-16T15:03:12;101389.56;;;17.67;78.26
6974;BME280;3527;52.376;8.990;2022-10-16T15:05:59;101395.16;;;17.53;78.84
6974;BME280;3527;52.376;8.990;2022-10-16T15:08:46;101402.03;;;17.55;79.26
6974;BME280;3527;52.376;8.990;2022-10-16T15:11:34;101401.66;;;17.53;78.97
6974;BME280;3527;52.376;8.990;2022-10-16T15:14:21;101395.56;;;17.51;78.78
6974;BME280;3527;52.376;8.990;2022-10-16T15:17:10;101383.09;;;17.35;79.11
6974;BME280;3527;52.376;8.990;2022-10-16T15:19:57;101389.53;;;17.28;79.57
6974;BME280;3527;52.376;8.990;2022-10-16T15:22:45;101393.53;;;17.06;80.75
6974;BME280;3527;52.376;8.990;2022-10-16T15:25:38;101412.03;;;16.92;81.73
6974;BME280;3527;52.376;8.990;2022-10-16T15:28:27;101418.44;;;16.75;82.46
6974;BME280;3527;52.376;8.990;2022-10-16T15:31:14;101424.44;;;16.70;83.37
6974;BME280;3527;52.376;8.990;2022-10-16T15:34:01;101431.63;;;16.53;84.54
6974;BME280;3527;52.376;8.990;2022-10-16T15:36:50;101430.41;;;16.47;84.45
6974;BME280;3527;52.376;8.990;2022-10-16T15:39:37;101426.31;;;16.37;85.30
6974;BME280;3527;52.376;8.990;2022-10-16T15:42:27;101421.50;;;16.42;84.88
6974;BME280;3527;52.376;8.990;2022-10-16T15:45:15;101427.47;;;16.29;85.60
6974;BME280;3527;52.376;8.990;2022-10-16T15:48:02;101430.59;;;16.10;86.81
6974;BME280;3527;52.376;8.990;2022-10-16T15:50:50;101446.97;;;15.90;88.61
6974;BME280;3527;52.376;8.990;2022-10-16T15:53:37;101457.25;;;15.68;90.31
6974;BME280;3527;52.376;8.990;2022-10-16T15:56:24;101459.06;;;15.50;91.67
6974;BME280;3527;52.376;8.990;2022-10-16T15:59:12;101456.03;;;15.29;93.46
6974;BME280;3527;52.376;8.990;2022-10-16T16:01:59;101453.50;;;15.13;94.91
6974;BME280;3527;52.376;8.990;2022-10-16T16:04:46;101455.66;;;14.93;96.21
6974;BME280;3527;52.376;8.990;2022-10-16T16:07:34;101460.69;;;14.77;98.58
6974;BME280;3527;52.376;8.990;2022-10-16T16:10:22;101456.94;;;14.66;100.00
6974;BME280;3527;52.376;8.990;2022-10-16T16:13:09;101451.59;;;14.53;100.00
6974;BME280;3527;52.376;8.990;2022-10-16T16:15:56;101452.00;;;14.56;100.00
6974;BME280;3527;52.376;8.990;2022-10-16T16:18:46;101449.44;;;14.43;100.00
6974;BME280;3527;52.376;8.990;2022-10-16T16:21:35;101438.84;;;14.33;100.00
6974;BME280;3527;52.376;8.990;2022-10-16T16:24:22;101442.28;;;14.23;100.00
6974;BME280;3527;52.376;8.990;2022-10-16T16:27:10;101439.81;;;14.18;100.00
6974;BME280;3527;52.376;8.990;2022-10-16T16:29:57;101449.00;;;14.15;100.00
6974;BME280;3527;52.376;8.990;2022-10-16T16:32:44;101459.81;;;14.13;100.00
6974;BME280;3527;52.376;8.990;2022-10-16T16:35:31;101457.38;;;14.11;100.00
6974;BME280;3527;52.376;8.990;2022-10-16T16:38:18;101465.00;;;14.11;100.00
6974;BME280;3527;52.376;8.990;2022-10-16T16:41:17;101456.53;;;14.07;100.00
6974;BME280;3527;52.376;8.990;2022-10-16T16:44:07;101450.09;;;14.07;100.00
6974;BME280;3527;52.376;8.990;2022-10-16T16:46:55;101452.03;;;14.03;100.00